Pagrindinis puslapis
METAR-TAF:

METAR-TAF

Oro uostai :

Lansingas, Mičiganas, Jungtinės Amerikos Valstijos

platuma: 42-46-49N, ilguma: 084-34-44W, Aukštis: 262 m

Dabartinis oras

Ataskaita buvo paskelbta 39 minutes, ne 20:53 UTC
Vėjas 4 kt iš Šiaurės Vakarų
Temperatūra 18°C
Drėgmė 59%
Slėgis 1013 hPa
Matomumas: 16.1 km
Su prošvaistėmis ne aukštis 3800 ft

METAR: KLAN 202053Z 32004KT 10SM BKN038 18/10 A2991 RMK AO2 SLP129 T01830100 53005 $

Laikas: 17:32 (21:32 UTC)

Prognozė

Ataskaita buvo paskelbta 3 valandos ir 52 minutes, ne 17:40 UTC
Prognozė galioja nuo 20 metu 18 UTC su 21 metu 18 UTC
Vėjas 4 kt iš Šiaurės Vakarų
Matomumas: 10 km
Išsisklaidę debesys ne aukštis 8000 ft
Nuo 21 metu 1400 UTC
Vėjas 12 kt iš Pietryčių
Matomumas: 10 km
Apsiniaukę ne aukštis 3000 ft
Nuo 21 metu 1700 UTC
Vėjas 16 kt iš Pietryčių su gūsio iki 24 kt
Matomumas: 10 km
Apsiniaukę ne aukštis 2500 ft

TAF: KLAN 201740Z 2018/2118 31004KT P6SM SCT080 FM211400 14012KT P6SM OVC030 FM211700 14016G24KT P6SM OVC025

Orai ataskaitas ir orų prognozės (METAR, TAF).

turimą stotys yra geltonos ir raudonos taškus žemėlapyje.

Perkelti pele per norėdami pamatyti stoties vardą.

Tada spustelėkite, norėdami matyti oro stebėjimo ir prognozės.

Norėdami pakeisti žemėlapį: spustelėkite ant žalios mygtukų su juodo kryžiaus žemyn,; žalią mygtuką su brūkšneliu, jei norite nutolinti; arba žalių rodyklių gretimoms žemėlapius.


METAR-TAF: